sensor_id;sensor_type;location;lat;lon;timestamp;pressure;altitude;pressure_sealevel;temperature;humidity
20942;BME280;10630;53.734;10.282;2023-04-20T00:00:08;101996.72;;;11.20;45.01
20942;BME280;10630;53.734;10.282;2023-04-20T00:02:38;101998.03;;;10.65;45.79
20942;BME280;10630;53.734;10.282;2023-04-20T00:05:06;101994.44;;;11.35;45.94
20942;BME280;10630;53.734;10.282;2023-04-20T00:07:33;101993.56;;;10.75;45.80
20942;BME280;10630;53.734;10.282;2023-04-20T00:10:01;101986.16;;;11.08;46.08
20942;BME280;10630;53.734;10.282;2023-04-20T00:12:29;101988.00;;;11.28;46.36
20942;BME280;10630;53.734;10.282;2023-04-20T00:14:56;101982.75;;;10.67;46.76
20942;BME280;10630;53.734;10.282;2023-04-20T00:17:24;101975.09;;;11.03;46.83
20942;BME280;10630;53.734;10.282;2023-04-20T00:19:50;101977.34;;;11.08;47.03
20942;BME280;10630;53.734;10.282;2023-04-20T00:22:20;101990.41;;;10.51;47.90
20942;BME280;10630;53.734;10.282;2023-04-20T00:24:47;101980.94;;;10.77;47.73
20942;BME280;10630;53.734;10.282;2023-04-20T00:27:15;101977.22;;;11.29;47.29
20942;BME280;10630;53.734;10.282;2023-04-20T00:29:43;101981.16;;;10.55;48.24
20942;BME280;10630;53.734;10.282;2023-04-20T00:32:11;101982.38;;;10.82;48.33
20942;BME280;10630;53.734;10.282;2023-04-20T00:34:40;101982.59;;;10.59;48.86
20942;BME280;10630;53.734;10.282;2023-04-20T00:37:08;101966.38;;;10.82;48.82
20942;BME280;10630;53.734;10.282;2023-04-20T00:39:35;101954.03;;;10.61;48.48
20942;BME280;10630;53.734;10.282;2023-04-20T00:42:03;101958.50;;;10.70;48.65
20942;BME280;10630;53.734;10.282;2023-04-20T00:44:30;101955.16;;;10.78;49.52
20942;BME280;10630;53.734;10.282;2023-04-20T00:46:59;101945.94;;;11.02;48.68
20942;BME280;10630;53.734;10.282;2023-04-20T00:49:28;101949.06;;;10.47;49.60
20942;BME280;10630;53.734;10.282;2023-04-20T00:51:56;101943.63;;;10.58;49.75
20942;BME280;10630;53.734;10.282;2023-04-20T00:54:23;101945.06;;;10.82;50.04
20942;BME280;10630;53.734;10.282;2023-04-20T00:56:51;101947.59;;;10.73;50.11
20942;BME280;10630;53.734;10.282;2023-04-20T00:59:20;101941.69;;;10.60;50.62
20942;BME280;10630;53.734;10.282;2023-04-20T01:01:48;101938.63;;;10.65;50.27
20942;BME280;10630;53.734;10.282;2023-04-20T01:04:15;101930.72;;;10.43;50.53
20942;BME280;10630;53.734;10.282;2023-04-20T01:06:44;101932.88;;;10.28;51.90
20942;BME280;10630;53.734;10.282;2023-04-20T01:09:11;101930.19;;;10.69;51.04
20942;BME280;10630;53.734;10.282;2023-04-20T01:11:39;101931.09;;;10.99;51.04
20942;BME280;10630;53.734;10.282;2023-04-20T01:14:06;101939.47;;;10.34;51.50
20942;BME280;10630;53.734;10.282;2023-04-20T01:16:33;101926.78;;;10.48;51.45
20942;BME280;10630;53.734;10.282;2023-04-20T01:19:04;101917.13;;;10.47;51.99
20942;BME280;10630;53.734;10.282;2023-04-20T01:21:31;101916.94;;;9.97;53.24
20942;BME280;10630;53.734;10.282;2023-04-20T01:23:57;101909.31;;;10.14;52.98
20942;BME280;10630;53.734;10.282;2023-04-20T01:26:25;101908.63;;;10.72;52.80
20942;BME280;10630;53.734;10.282;2023-04-20T01:28:53;101912.91;;;10.03;53.23
20942;BME280;10630;53.734;10.282;2023-04-20T01:31:22;101910.84;;;9.86;55.33
20942;BME280;10630;53.734;10.282;2023-04-20T01:33:49;101921.22;;;10.60;54.10
20942;BME280;10630;53.734;10.282;2023-04-20T01:36:16;101918.25;;;10.54;53.33
20942;BME280;10630;53.734;10.282;2023-04-20T01:38:43;101926.88;;;10.36;53.72
20942;BME280;10630;53.734;10.282;2023-04-20T01:41:12;101918.41;;;10.52;53.48
20942;BME280;10630;53.734;10.282;2023-04-20T01:43:39;101910.06;;;10.36;54.13
20942;BME280;10630;53.734;10.282;2023-04-20T01:46:06;101915.91;;;10.20;55.06
20942;BME280;10630;53.734;10.282;2023-04-20T01:48:33;101912.97;;;10.73;54.43
20942;BME280;10630;53.734;10.282;2023-04-20T01:51:00;101905.53;;;10.67;55.18
20942;BME280;10630;53.734;10.282;2023-04-20T01:53:28;101915.31;;;10.06;57.83
20942;BME280;10630;53.734;10.282;2023-04-20T01:55:55;101903.88;;;9.85;59.70
20942;BME280;10630;53.734;10.282;2023-04-20T01:58:22;101900.50;;;10.13;60.56
20942;BME280;10630;53.734;10.282;2023-04-20T02:00:50;101907.53;;;9.41;62.27
20942;BME280;10630;53.734;10.282;2023-04-20T02:03:20;101914.19;;;9.78;62.40
20942;BME280;10630;53.734;10.282;2023-04-20T02:05:47;101894.28;;;10.03;61.85
20942;BME280;10630;53.734;10.282;2023-04-20T02:08:31;101894.78;;;9.56;63.95
20942;BME280;10630;53.734;10.282;2023-04-20T02:10:59;101897.63;;;9.64;67.62
20942;BME280;10630;53.734;10.282;2023-04-20T02:13:29;101888.88;;;9.53;67.02
20942;BME280;10630;53.734;10.282;2023-04-20T02:15:57;101883.69;;;9.51;68.61
20942;BME280;10630;53.734;10.282;2023-04-20T02:18:24;101873.59;;;9.24;68.68
20942;BME280;10630;53.734;10.282;2023-04-20T02:20:50;101870.38;;;9.51;68.60
20942;BME280;10630;53.734;10.282;2023-04-20T02:23:28;101880.38;;;9.59;69.18
20942;BME280;10630;53.734;10.282;2023-04-20T02:25:56;101886.81;;;9.56;68.18
20942;BME280;10630;53.734;10.282;2023-04-20T02:28:27;101878.50;;;9.49;68.05
20942;BME280;10630;53.734;10.282;2023-04-20T02:30:55;101877.66;;;9.07;68.42
20942;BME280;10630;53.734;10.282;2023-04-20T02:33:22;101874.16;;;9.48;68.86
20942;BME280;10630;53.734;10.282;2023-04-20T02:35:51;101864.25;;;9.50;68.16
20942;BME280;10630;53.734;10.282;2023-04-20T02:38:19;101868.66;;;9.40;69.20
20942;BME280;10630;53.734;10.282;2023-04-20T02:40:47;101862.94;;;9.66;68.10
20942;BME280;10630;53.734;10.282;2023-04-20T02:43:15;101861.06;;;9.35;68.95
20942;BME280;10630;53.734;10.282;2023-04-20T02:45:41;101868.06;;;9.58;69.28
20942;BME280;10630;53.734;10.282;2023-04-20T02:48:12;101858.69;;;9.11;70.24
20942;BME280;10630;53.734;10.282;2023-04-20T02:50:41;101853.63;;;9.50;70.98
20942;BME280;10630;53.734;10.282;2023-04-20T02:53:07;101848.84;;;9.02;71.06
20942;BME280;10630;53.734;10.282;2023-04-20T02:55:34;101854.22;;;9.33;70.32
20942;BME280;10630;53.734;10.282;2023-04-20T02:58:01;101852.94;;;9.89;68.85
20942;BME280;10630;53.734;10.282;2023-04-20T03:00:28;101857.66;;;9.76;67.37
20942;BME280;10630;53.734;10.282;2023-04-20T03:02:55;101862.31;;;9.53;68.06
20942;BME280;10630;53.734;10.282;2023-04-20T03:05:22;101865.09;;;10.33;67.51
20942;BME280;10630;53.734;10.282;2023-04-20T03:07:49;101863.16;;;9.32;66.70
20942;BME280;10630;53.734;10.282;2023-04-20T03:10:16;101853.38;;;9.85;69.15
20942;BME280;10630;53.734;10.282;2023-04-20T03:12:43;101851.84;;;9.30;70.72
20942;BME280;10630;53.734;10.282;2023-04-20T03:15:09;101850.03;;;9.61;71.21
20942;BME280;10630;53.734;10.282;2023-04-20T03:17:37;101848.66;;;9.36;71.66
20942;BME280;10630;53.734;10.282;2023-04-20T03:20:04;101858.59;;;10.16;71.24
20942;BME280;10630;53.734;10.282;2023-04-20T03:22:31;101851.00;;;9.60;70.60
20942;BME280;10630;53.734;10.282;2023-04-20T03:24:59;101853.19;;;9.45;74.56
20942;BME280;10630;53.734;10.282;2023-04-20T03:27:26;101855.41;;;9.81;75.14
20942;BME280;10630;53.734;10.282;2023-04-20T03:29:53;101860.25;;;9.35;74.53
20942;BME280;10630;53.734;10.282;2023-04-20T03:32:20;101869.19;;;9.96;75.43
20942;BME280;10630;53.734;10.282;2023-04-20T03:34:49;101867.81;;;10.02;73.13
20942;BME280;10630;53.734;10.282;2023-04-20T03:37:15;101850.38;;;10.28;73.41
20942;BME280;10630;53.734;10.282;2023-04-20T03:39:44;101857.53;;;10.28;72.38
20942;BME280;10630;53.734;10.282;2023-04-20T03:42:11;101865.44;;;10.49;73.72
20942;BME280;10630;53.734;10.282;2023-04-20T03:44:41;101862.84;;;10.28;72.96
20942;BME280;10630;53.734;10.282;2023-04-20T03:47:09;101852.56;;;10.44;74.93
20942;BME280;10630;53.734;10.282;2023-04-20T03:49:37;101849.66;;;10.17;75.28
20942;BME280;10630;53.734;10.282;2023-04-20T03:52:06;101857.22;;;10.11;76.62
20942;BME280;10630;53.734;10.282;2023-04-20T03:54:33;101856.59;;;9.88;78.59
20942;BME280;10630;53.734;10.282;2023-04-20T03:57:00;101858.66;;;10.25;78.93
20942;BME280;10630;53.734;10.282;2023-04-20T03:59:27;101850.09;;;9.81;79.77
20942;BME280;10630;53.734;10.282;2023-04-20T04:01:55;101849.81;;;9.43;83.07
20942;BME280;10630;53.734;10.282;2023-04-20T04:04:22;101843.72;;;9.31;85.24
20942;BME280;10630;53.734;10.282;2023-04-20T04:06:49;101848.13;;;8.79;88.36
20942;BME280;10630;53.734;10.282;2023-04-20T04:09:17;101835.00;;;9.50;88.55
20942;BME280;10630;53.734;10.282;2023-04-20T04:11:44;101833.75;;;9.55;88.54
20942;BME280;10630;53.734;10.282;2023-04-20T04:14:11;101826.28;;;9.39;86.22
20942;BME280;10630;53.734;10.282;2023-04-20T04:16:37;101839.72;;;9.16;88.02
20942;BME280;10630;53.734;10.282;2023-04-20T04:19:05;101847.59;;;9.79;87.57
20942;BME280;10630;53.734;10.282;2023-04-20T04:21:33;101838.88;;;9.15;90.05
20942;BME280;10630;53.734;10.282;2023-04-20T04:23:59;101847.59;;;9.27;90.67
20942;BME280;10630;53.734;10.282;2023-04-20T04:26:26;101848.34;;;9.60;90.67
20942;BME280;10630;53.734;10.282;2023-04-20T04:28:54;101853.28;;;9.44;92.20
20942;BME280;10630;53.734;10.282;2023-04-20T04:31:21;101853.50;;;9.93;88.81
20942;BME280;10630;53.734;10.282;2023-04-20T04:33:49;101856.66;;;10.18;84.54
20942;BME280;10630;53.734;10.282;2023-04-20T04:36:16;101860.19;;;10.28;86.22
20942;BME280;10630;53.734;10.282;2023-04-20T04:38:45;101861.78;;;10.50;83.99
20942;BME280;10630;53.734;10.282;2023-04-20T04:41:12;101864.81;;;10.26;85.59
20942;BME280;10630;53.734;10.282;2023-04-20T04:43:39;101868.63;;;9.61;89.78
20942;BME280;10630;53.734;10.282;2023-04-20T04:46:06;101866.47;;;10.07;87.35
20942;BME280;10630;53.734;10.282;2023-04-20T04:48:37;101863.47;;;9.91;88.60
20942;BME280;10630;53.734;10.282;2023-04-20T04:51:08;101857.19;;;10.82;83.59
20942;BME280;10630;53.734;10.282;2023-04-20T04:53:35;101872.56;;;9.98;82.97
20942;BME280;10630;53.734;10.282;2023-04-20T04:56:04;101869.09;;;10.48;83.77
20942;BME280;10630;53.734;10.282;2023-04-20T04:58:32;101866.03;;;10.12;83.67
20942;BME280;10630;53.734;10.282;2023-04-20T05:00:58;101866.56;;;9.65;85.31
20942;BME280;10630;53.734;10.282;2023-04-20T05:03:25;101867.03;;;10.21;86.46
20942;BME280;10630;53.734;10.282;2023-04-20T05:05:52;101867.84;;;10.11;86.47
20942;BME280;10630;53.734;10.282;2023-04-20T05:08:20;101862.31;;;9.84;88.19
20942;BME280;10630;53.734;10.282;2023-04-20T05:10:50;101864.00;;;10.35;86.70
20942;BME280;10630;53.734;10.282;2023-04-20T05:13:17;101869.06;;;10.38;84.16
20942;BME280;10630;53.734;10.282;2023-04-20T05:15:44;101867.63;;;10.34;85.69
20942;BME280;10630;53.734;10.282;2023-04-20T05:18:13;101869.16;;;10.27;86.26
20942;BME280;10630;53.734;10.282;2023-04-20T05:20:40;101868.81;;;10.61;86.87
20942;BME280;10630;53.734;10.282;2023-04-20T05:23:06;101869.09;;;10.58;85.27
20942;BME280;10630;53.734;10.282;2023-04-20T05:25:33;101860.94;;;10.40;85.12
20942;BME280;10630;53.734;10.282;2023-04-20T05:28:01;101868.94;;;9.99;88.45
20942;BME280;10630;53.734;10.282;2023-04-20T05:30:28;101871.16;;;9.94;90.70
20942;BME280;10630;53.734;10.282;2023-04-20T05:32:54;101874.63;;;10.35;88.49
20942;BME280;10630;53.734;10.282;2023-04-20T05:35:21;101875.47;;;10.36;87.30
20942;BME280;10630;53.734;10.282;2023-04-20T05:37:48;101865.16;;;10.62;85.01
20942;BME280;10630;53.734;10.282;2023-04-20T05:40:14;101867.09;;;10.50;87.04
20942;BME280;10630;53.734;10.282;2023-04-20T05:42:42;101872.59;;;10.98;84.45
20942;BME280;10630;53.734;10.282;2023-04-20T05:45:09;101874.69;;;10.55;86.90
20942;BME280;10630;53.734;10.282;2023-04-20T05:47:52;101874.72;;;10.65;87.24
20942;BME280;10630;53.734;10.282;2023-04-20T05:50:19;101877.34;;;10.04;88.15
20942;BME280;10630;53.734;10.282;2023-04-20T05:52:46;101886.25;;;9.84;92.22
20942;BME280;10630;53.734;10.282;2023-04-20T05:55:13;101885.66;;;9.80;95.46
20942;BME280;10630;53.734;10.282;2023-04-20T05:57:43;101869.78;;;9.69;96.97
20942;BME280;10630;53.734;10.282;2023-04-20T06:00:10;101881.53;;;9.97;95.93
20942;BME280;10630;53.734;10.282;2023-04-20T06:02:39;101876.81;;;10.10;96.50
20942;BME280;10630;53.734;10.282;2023-04-20T06:05:07;101881.19;;;9.80;98.39
20942;BME280;10630;53.734;10.282;2023-04-20T06:07:37;101879.84;;;9.65;98.03
20942;BME280;10630;53.734;10.282;2023-04-20T06:10:04;101880.72;;;10.06;97.72
20942;BME280;10630;53.734;10.282;2023-04-20T06:12:31;101878.53;;;10.31;94.76
20942;BME280;10630;53.734;10.282;2023-04-20T06:14:58;101876.47;;;9.94;96.63
20942;BME280;10630;53.734;10.282;2023-04-20T06:17:25;101880.41;;;10.40;97.11
20942;BME280;10630;53.734;10.282;2023-04-20T06:19:52;101878.69;;;10.29;95.06
20942;BME280;10630;53.734;10.282;2023-04-20T06:22:18;101890.78;;;10.03;97.60
20942;BME280;10630;53.734;10.282;2023-04-20T06:24:45;101878.69;;;9.89;98.89
20942;BME280;10630;53.734;10.282;2023-04-20T06:27:12;101874.31;;;9.47;100.00
20942;BME280;10630;53.734;10.282;2023-04-20T06:29:38;101882.03;;;9.29;100.00
20942;BME280;10630;53.734;10.282;2023-04-20T06:32:05;101880.28;;;9.18;100.00
20942;BME280;10630;53.734;10.282;2023-04-20T06:34:32;101876.97;;;9.78;100.00
20942;BME280;10630;53.734;10.282;2023-04-20T06:36:59;101873.13;;;9.92;100.00
20942;BME280;10630;53.734;10.282;2023-04-20T06:39:25;101868.94;;;9.99;100.00
20942;BME280;10630;53.734;10.282;2023-04-20T06:41:52;101884.94;;;10.09;100.00
20942;BME280;10630;53.734;10.282;2023-04-20T06:44:18;101873.03;;;10.64;97.14
20942;BME280;10630;53.734;10.282;2023-04-20T06:46:45;101878.25;;;10.34;100.00
20942;BME280;10630;53.734;10.282;2023-04-20T06:49:12;101884.69;;;10.22;100.00
20942;BME280;10630;53.734;10.282;2023-04-20T06:51:39;101891.97;;;10.80;95.54
20942;BME280;10630;53.734;10.282;2023-04-20T06:54:05;101887.31;;;10.53;98.73
20942;BME280;10630;53.734;10.282;2023-04-20T06:56:32;101887.22;;;10.33;99.71
20942;BME280;10630;53.734;10.282;2023-04-20T06:59:01;101878.91;;;10.57;96.94
20942;BME280;10630;53.734;10.282;2023-04-20T07:01:27;101886.06;;;10.86;91.50
20942;BME280;10630;53.734;10.282;2023-04-20T07:03:53;101880.09;;;10.34;99.85
20942;BME280;10630;53.734;10.282;2023-04-20T07:06:20;101900.53;;;9.92;99.75
20942;BME280;10630;53.734;10.282;2023-04-20T07:08:47;101899.13;;;10.99;100.00
20942;BME280;10630;53.734;10.282;2023-04-20T07:11:13;101890.94;;;10.52;95.61
20942;BME280;10630;53.734;10.282;2023-04-20T07:13:40;101902.78;;;9.87;100.00
20942;BME280;10630;53.734;10.282;2023-04-20T07:16:07;101901.03;;;10.58;100.00
20942;BME280;10630;53.734;10.282;2023-04-20T07:18:35;101905.81;;;9.52;100.00
20942;BME280;10630;53.734;10.282;2023-04-20T07:21:02;101899.56;;;9.41;100.00
20942;BME280;10630;53.734;10.282;2023-04-20T07:23:29;101892.56;;;10.33;100.00
20942;BME280;10630;53.734;10.282;2023-04-20T07:25:55;101895.81;;;10.37;96.64
20942;BME280;10630;53.734;10.282;2023-04-20T07:28:22;101894.84;;;10.38;100.00
20942;BME280;10630;53.734;10.282;2023-04-20T07:30:49;101896.53;;;10.58;99.03
20942;BME280;10630;53.734;10.282;2023-04-20T07:33:15;101900.31;;;10.46;98.86
20942;BME280;10630;53.734;10.282;2023-04-20T07:35:42;101899.38;;;10.86;96.13
20942;BME280;10630;53.734;10.282;2023-04-20T07:38:09;101907.84;;;10.00;99.52
20942;BME280;10630;53.734;10.282;2023-04-20T07:40:36;101913.31;;;10.39;100.00
20942;BME280;10630;53.734;10.282;2023-04-20T07:43:03;101911.94;;;10.45;98.05
20942;BME280;10630;53.734;10.282;2023-04-20T07:45:31;101922.66;;;10.74;98.98
20942;BME280;10630;53.734;10.282;2023-04-20T07:47:58;101928.81;;;11.04;92.37
20942;BME280;10630;53.734;10.282;2023-04-20T07:50:26;101916.59;;;11.41;91.53
20942;BME280;10630;53.734;10.282;2023-04-20T07:52:53;101926.69;;;10.79;92.97
20942;BME280;10630;53.734;10.282;2023-04-20T07:55:20;101926.59;;;11.77;88.45
20942;BME280;10630;53.734;10.282;2023-04-20T07:57:47;101921.94;;;10.72;90.08
20942;BME280;10630;53.734;10.282;2023-04-20T08:00:14;101932.44;;;10.64;94.31
20942;BME280;10630;53.734;10.282;2023-04-20T08:02:41;101932.75;;;11.20;91.25
20942;BME280;10630;53.734;10.282;2023-04-20T08:05:08;101927.97;;;10.74;93.57
20942;BME280;10630;53.734;10.282;2023-04-20T08:07:36;101928.81;;;11.24;95.03
20942;BME280;10630;53.734;10.282;2023-04-20T08:10:03;101938.72;;;12.09;85.67
20942;BME280;10630;53.734;10.282;2023-04-20T08:12:33;101939.88;;;11.96;83.11
20942;BME280;10630;53.734;10.282;2023-04-20T08:14:59;101942.69;;;11.47;86.32
20942;BME280;10630;53.734;10.282;2023-04-20T08:17:29;101947.72;;;12.08;82.55
20942;BME280;10630;53.734;10.282;2023-04-20T08:19:56;101948.56;;;12.08;81.01
20942;BME280;10630;53.734;10.282;2023-04-20T08:22:22;101939.31;;;12.02;82.83
20942;BME280;10630;53.734;10.282;2023-04-20T08:24:55;101962.50;;;11.92;82.36
20942;BME280;10630;53.734;10.282;2023-04-20T08:27:24;101961.06;;;12.08;80.73
20942;BME280;10630;53.734;10.282;2023-04-20T08:29:50;101957.94;;;11.75;82.65
20942;BME280;10630;53.734;10.282;2023-04-20T08:32:17;101959.97;;;11.14;84.41
20942;BME280;10630;53.734;10.282;2023-04-20T08:34:49;101954.88;;;12.45;82.14
20942;BME280;10630;53.734;10.282;2023-04-20T08:37:15;101955.16;;;12.42;80.68
20942;BME280;10630;53.734;10.282;2023-04-20T08:39:42;101949.59;;;12.81;79.36
20942;BME280;10630;53.734;10.282;2023-04-20T08:42:09;101953.91;;;12.64;78.14
20942;BME280;10630;53.734;10.282;2023-04-20T08:44:35;101947.13;;;11.66;81.83
20942;BME280;10630;53.734;10.282;2023-04-20T08:47:02;101934.56;;;11.29;87.69
20942;BME280;10630;53.734;10.282;2023-04-20T08:49:29;101950.97;;;11.24;90.53
20942;BME280;10630;53.734;10.282;2023-04-20T08:51:56;101949.50;;;11.69;85.12
20942;BME280;10630;53.734;10.282;2023-04-20T08:54:23;101949.69;;;10.60;92.25
20942;BME280;10630;53.734;10.282;2023-04-20T08:56:50;101950.09;;;10.65;98.99
20942;BME280;10630;53.734;10.282;2023-04-20T08:59:17;101941.19;;;11.82;92.74
20942;BME280;10630;53.734;10.282;2023-04-20T09:01:45;101943.91;;;11.63;89.01
20942;BME280;10630;53.734;10.282;2023-04-20T09:06:45;101939.91;;;11.29;98.41
20942;BME280;10630;53.734;10.282;2023-04-20T09:09:12;101951.75;;;11.64;92.97
20942;BME280;10630;53.734;10.282;2023-04-20T09:11:38;101951.84;;;12.30;88.20
20942;BME280;10630;53.734;10.282;2023-04-20T09:14:12;101962.09;;;11.87;92.79
20942;BME280;10630;53.734;10.282;2023-04-20T09:16:52;101956.81;;;11.67;93.91
20942;BME280;10630;53.734;10.282;2023-04-20T09:19:25;101953.19;;;12.44;86.07
20942;BME280;10630;53.734;10.282;2023-04-20T09:21:53;101949.03;;;12.59;86.46
20942;BME280;10630;53.734;10.282;2023-04-20T09:24:21;101950.34;;;13.09;83.49
20942;BME280;10630;53.734;10.282;2023-04-20T09:26:48;101952.16;;;13.45;78.97
20942;BME280;10630;53.734;10.282;2023-04-20T09:29:16;101950.94;;;12.67;82.18
20942;BME280;10630;53.734;10.282;2023-04-20T09:31:43;101964.22;;;12.77;85.64
20942;BME280;10630;53.734;10.282;2023-04-20T09:34:11;101961.41;;;13.14;81.82
20942;BME280;10630;53.734;10.282;2023-04-20T09:39:06;101967.66;;;13.86;79.32
20942;BME280;10630;53.734;10.282;2023-04-20T09:41:33;101968.03;;;13.65;81.78
20942;BME280;10630;53.734;10.282;2023-04-20T09:44:00;101967.34;;;13.63;79.64
20942;BME280;10630;53.734;10.282;2023-04-20T09:46:28;101975.28;;;14.07;78.65
20942;BME280;10630;53.734;10.282;2023-04-20T09:48:57;101970.28;;;14.04;74.68
20942;BME280;10630;53.734;10.282;2023-04-20T09:51:25;101971.81;;;13.80;74.20
20942;BME280;10630;53.734;10.282;2023-04-20T09:53:57;101978.31;;;14.04;77.61
20942;BME280;10630;53.734;10.282;2023-04-20T09:56:25;101968.59;;;14.03;73.41
20942;BME280;10630;53.734;10.282;2023-04-20T09:58:53;101962.94;;;14.14;71.84
20942;BME280;10630;53.734;10.282;2023-04-20T10:01:20;101965.91;;;14.03;70.70
20942;BME280;10630;53.734;10.282;2023-04-20T10:03:50;101953.91;;;13.54;79.52
20942;BME280;10630;53.734;10.282;2023-04-20T10:08:48;101944.78;;;12.85;80.46
20942;BME280;10630;53.734;10.282;2023-04-20T10:11:23;101941.84;;;12.04;86.12
20942;BME280;10630;53.734;10.282;2023-04-20T10:13:51;101944.50;;;11.47;91.14
20942;BME280;10630;53.734;10.282;2023-04-20T10:16:18;101933.88;;;11.17;92.99
20942;BME280;10630;53.734;10.282;2023-04-20T10:19:02;101936.09;;;11.42;95.61
20942;BME280;10630;53.734;10.282;2023-04-20T10:21:30;101943.44;;;12.25;91.78
20942;BME280;10630;53.734;10.282;2023-04-20T10:23:59;101936.03;;;12.46;93.06
20942;BME280;10630;53.734;10.282;2023-04-20T10:26:40;101947.72;;;12.63;88.04
20942;BME280;10630;53.734;10.282;2023-04-20T10:29:08;101952.88;;;12.19;89.05
20942;BME280;10630;53.734;10.282;2023-04-20T10:31:36;101945.69;;;12.29;92.00
20942;BME280;10630;53.734;10.282;2023-04-20T10:34:03;101959.09;;;12.38;88.75
20942;BME280;10630;53.734;10.282;2023-04-20T10:36:31;101957.84;;;13.68;82.23
20942;BME280;10630;53.734;10.282;2023-04-20T10:39:14;101965.56;;;13.71;79.07
20942;BME280;10630;53.734;10.282;2023-04-20T10:41:51;101963.88;;;14.99;75.26
20942;BME280;10630;53.734;10.282;2023-04-20T10:44:18;101962.84;;;15.82;68.91
20942;BME280;10630;53.734;10.282;2023-04-20T10:46:48;101961.56;;;15.45;70.11
20942;BME280;10630;53.734;10.282;2023-04-20T10:49:16;101957.22;;;15.19;68.14
20942;BME280;10630;53.734;10.282;2023-04-20T10:51:49;101967.59;;;15.06;68.77
20942;BME280;10630;53.734;10.282;2023-04-20T10:54:16;101972.53;;;13.90;73.17
20942;BME280;10630;53.734;10.282;2023-04-20T10:56:51;101957.91;;;14.54;74.05
20942;BME280;10630;53.734;10.282;2023-04-20T10:59:19;101954.50;;;14.86;71.63
20942;BME280;10630;53.734;10.282;2023-04-20T11:01:48;101950.19;;;15.18;71.29
20942;BME280;10630;53.734;10.282;2023-04-20T11:04:16;101950.63;;;14.30;72.66
20942;BME280;10630;53.734;10.282;2023-04-20T11:06:45;101948.25;;;13.57;78.36
20942;BME280;10630;53.734;10.282;2023-04-20T11:11:43;101948.13;;;15.54;73.22
20942;BME280;10630;53.734;10.282;2023-04-20T11:14:12;101941.94;;;16.26;66.12
20942;BME280;10630;53.734;10.282;2023-04-20T11:16:38;101938.16;;;16.04;68.67
20942;BME280;10630;53.734;10.282;2023-04-20T11:19:27;101932.84;;;16.58;65.24
20942;BME280;10630;53.734;10.282;2023-04-20T11:21:56;101931.16;;;16.89;63.56
20942;BME280;10630;53.734;10.282;2023-04-20T11:24:23;101928.63;;;16.33;62.33
20942;BME280;10630;53.734;10.282;2023-04-20T11:26:51;101937.53;;;16.88;61.74
20942;BME280;10630;53.734;10.282;2023-04-20T11:29:28;101932.44;;;17.39;59.84
20942;BME280;10630;53.734;10.282;2023-04-20T11:31:56;101928.94;;;17.54;58.28
20942;BME280;10630;53.734;10.282;2023-04-20T11:34:23;101941.94;;;17.65;57.79
20942;BME280;10630;53.734;10.282;2023-04-20T11:36:50;101942.41;;;16.92;59.62
20942;BME280;10630;53.734;10.282;2023-04-20T11:39:23;101938.09;;;17.06;60.30
20942;BME280;10630;53.734;10.282;2023-04-20T11:41:50;101942.53;;;17.37;59.46
20942;BME280;10630;53.734;10.282;2023-04-20T11:44:27;101936.28;;;16.44;59.37
20942;BME280;10630;53.734;10.282;2023-04-20T11:46:56;101934.88;;;16.25;61.77
20942;BME280;10630;53.734;10.282;2023-04-20T11:49:23;101940.38;;;15.75;63.87
20942;BME280;10630;53.734;10.282;2023-04-20T11:51:50;101938.41;;;15.44;65.43
20942;BME280;10630;53.734;10.282;2023-04-20T11:54:18;101934.41;;;14.82;69.46
20942;BME280;10630;53.734;10.282;2023-04-20T11:56:44;101940.44;;;13.90;74.98
20942;BME280;10630;53.734;10.282;2023-04-20T11:59:11;101943.53;;;14.12;77.71
20942;BME280;10630;53.734;10.282;2023-04-20T12:01:40;101939.16;;;14.46;73.94
20942;BME280;10630;53.734;10.282;2023-04-20T12:04:07;101932.75;;;13.96;77.02
20942;BME280;10630;53.734;10.282;2023-04-20T12:06:34;101935.00;;;15.75;71.92
20942;BME280;10630;53.734;10.282;2023-04-20T12:09:01;101929.28;;;16.35;66.47
20942;BME280;10630;53.734;10.282;2023-04-20T12:11:28;101940.28;;;15.44;66.33
20942;BME280;10630;53.734;10.282;2023-04-20T12:13:54;101937.06;;;15.57;68.87
20942;BME280;10630;53.734;10.282;2023-04-20T12:16:22;101937.13;;;17.22;64.47
20942;BME280;10630;53.734;10.282;2023-04-20T12:18:48;101933.91;;;16.81;64.73
20942;BME280;10630;53.734;10.282;2023-04-20T12:21:15;101938.53;;;16.95;63.32
20942;BME280;10630;53.734;10.282;2023-04-20T12:23:42;101929.44;;;16.96;62.59
20942;BME280;10630;53.734;10.282;2023-04-20T12:26:10;101930.41;;;17.86;60.27
20942;BME280;10630;53.734;10.282;2023-04-20T12:28:36;101939.38;;;18.54;58.46
20942;BME280;10630;53.734;10.282;2023-04-20T12:31:03;101926.97;;;18.96;56.78
20942;BME280;10630;53.734;10.282;2023-04-20T12:33:30;101927.34;;;18.93;56.66
20942;BME280;10630;53.734;10.282;2023-04-20T12:35:56;101927.69;;;18.46;56.06
20942;BME280;10630;53.734;10.282;2023-04-20T12:38:23;101928.53;;;18.90;56.15
20942;BME280;10630;53.734;10.282;2023-04-20T12:40:50;101920.56;;;18.82;56.65
20942;BME280;10630;53.734;10.282;2023-04-20T12:43:17;101939.78;;;17.46;59.17
20942;BME280;10630;53.734;10.282;2023-04-20T12:45:43;101924.16;;;18.46;57.21
20942;BME280;10630;53.734;10.282;2023-04-20T12:48:11;101921.59;;;18.59;55.41
20942;BME280;10630;53.734;10.282;2023-04-20T12:50:37;101929.47;;;17.11;61.48
20942;BME280;10630;53.734;10.282;2023-04-20T12:53:03;101921.94;;;17.45;61.47
20942;BME280;10630;53.734;10.282;2023-04-20T12:55:30;101914.81;;;18.85;57.21